createdAt,value
2023-05-25T00:01:02.567Z,6.46
2023-05-25T00:03:31.435Z,6.24
2023-05-25T00:05:58.846Z,6.18
2023-05-25T00:08:25.477Z,6.12
2023-05-25T00:10:52.256Z,6.23
2023-05-25T00:13:18.873Z,6.37
2023-05-25T00:15:45.720Z,6.49
2023-05-25T00:18:13.107Z,5.65
2023-05-25T00:20:40.008Z,5.98
2023-05-25T00:23:06.716Z,5.79
2023-05-25T00:25:33.323Z,5.94
2023-05-25T00:27:59.948Z,6.13
2023-05-25T00:30:26.528Z,5.76
2023-05-25T00:32:55.575Z,5.54
2023-05-25T00:35:22.221Z,5.40
2023-05-25T00:37:49.724Z,5.54
2023-05-25T00:40:19.490Z,5.62
2023-05-25T00:42:47.387Z,5.16
2023-05-25T00:45:13.992Z,5.73
2023-05-25T00:47:41.522Z,6.24
2023-05-25T00:50:10.515Z,6.23
2023-05-25T00:52:37.162Z,5.71
2023-05-25T00:55:04.270Z,5.82
2023-05-25T00:57:34.344Z,6.32
2023-05-25T01:00:03.291Z,6.84
2023-05-25T01:02:31.090Z,5.46
2023-05-25T01:05:02.649Z,5.59
2023-05-25T01:07:32.562Z,6.01
2023-05-25T01:10:02.505Z,5.73
2023-05-25T01:12:30.303Z,5.44
2023-05-25T01:14:57.231Z,5.40
2023-05-25T01:17:23.981Z,5.50
2023-05-25T01:20:08.989Z,6.00
2023-05-25T01:22:54.141Z,6.21
2023-05-25T01:25:33.414Z,5.85
2023-05-25T01:28:28.089Z,6.12
2023-05-25T01:30:58.578Z,6.31
2023-05-25T01:33:26.714Z,7.28
2023-05-25T01:35:53.597Z,6.96
2023-05-25T01:38:20.747Z,5.46
2023-05-25T01:40:47.361Z,5.52
2023-05-25T01:43:14.186Z,5.55
2023-05-25T01:45:41.370Z,5.57
2023-05-25T01:48:30.458Z,5.94
2023-05-25T01:50:58.715Z,6.28
2023-05-25T01:53:36.057Z,6.10
2023-05-25T01:56:11.565Z,5.96
2023-05-25T01:58:42.585Z,6.14
2023-05-25T02:01:10.688Z,6.15
2023-05-25T02:03:41.756Z,5.81
2023-05-25T02:06:08.829Z,5.79
2023-05-25T02:08:35.522Z,5.83
2023-05-25T02:11:02.405Z,5.63
2023-05-25T02:13:29.160Z,5.75
2023-05-25T02:15:56.372Z,5.68
2023-05-25T02:18:23.692Z,6.06
2023-05-25T02:20:50.499Z,5.94
2023-05-25T02:23:18.933Z,5.87
2023-05-25T02:25:46.445Z,5.56
2023-05-25T02:28:14.378Z,5.86
2023-05-25T02:30:41.024Z,6.08
2023-05-25T02:33:07.727Z,6.30
2023-05-25T02:35:34.341Z,6.48
2023-05-25T02:38:01.058Z,6.34
2023-05-25T02:40:27.688Z,6.53
2023-05-25T02:42:54.354Z,6.48
2023-05-25T02:45:21.062Z,6.93
2023-05-25T02:47:47.691Z,6.67
2023-05-25T02:50:14.328Z,6.73
2023-05-25T02:52:40.977Z,6.54
2023-05-25T02:55:10.337Z,5.94
2023-05-25T02:57:39.992Z,5.86
2023-05-25T03:00:07.531Z,6.73
2023-05-25T03:02:35.035Z,6.58
2023-05-25T03:05:04.176Z,5.51
2023-05-25T03:07:31.706Z,6.35
2023-05-25T03:09:59.461Z,6.71
2023-05-25T03:12:26.196Z,6.57
2023-05-25T03:14:52.870Z,7.09
2023-05-25T03:17:19.484Z,6.78
2023-05-25T03:19:46.121Z,7.20
2023-05-25T03:22:12.737Z,6.98
2023-05-25T03:24:42.203Z,7.01
2023-05-25T03:27:09.093Z,6.52
2023-05-25T03:29:35.880Z,6.25
2023-05-25T03:32:02.547Z,6.17
2023-05-25T03:34:30.096Z,6.55
2023-05-25T03:36:56.862Z,6.74
2023-05-25T03:39:23.635Z,6.67
2023-05-25T03:41:51.227Z,6.85
2023-05-25T03:44:17.932Z,6.90
2023-05-25T03:46:44.612Z,6.83
2023-05-25T03:49:13.967Z,6.90
2023-05-25T03:51:42.551Z,6.50
2023-05-25T03:54:09.372Z,6.26
2023-05-25T03:56:36.253Z,6.58
2023-05-25T03:59:03.179Z,6.44
2023-05-25T04:01:30.213Z,6.74
2023-05-25T04:03:57.408Z,6.30
2023-05-25T04:06:30.012Z,6.38
2023-05-25T04:08:58.010Z,6.07
2023-05-25T04:11:25.686Z,6.24
2023-05-25T04:13:52.310Z,6.34
2023-05-25T04:16:19.001Z,6.21
2023-05-25T04:18:45.705Z,6.17
2023-05-25T04:21:12.366Z,6.07
2023-05-25T04:23:38.938Z,5.94
2023-05-25T04:26:06.080Z,6.15
2023-05-25T04:28:32.705Z,6.39
2023-05-25T04:30:59.409Z,6.38
2023-05-25T04:33:29.726Z,6.36
2023-05-25T04:35:58.691Z,6.57
2023-05-25T04:38:25.445Z,6.20
2023-05-25T04:40:53.931Z,6.31
2023-05-25T04:43:20.596Z,6.57
2023-05-25T04:45:47.656Z,7.02
2023-05-25T04:48:14.476Z,6.88
2023-05-25T04:50:41.187Z,6.76
2023-05-25T04:53:07.852Z,6.92
2023-05-25T04:55:34.625Z,6.86
2023-05-25T04:58:01.527Z,6.97
2023-05-25T05:00:28.182Z,7.54
2023-05-25T05:03:01.613Z,7.41
2023-05-25T05:05:28.289Z,7.23
2023-05-25T05:07:54.951Z,7.62
2023-05-25T05:10:21.739Z,7.78
2023-05-25T05:12:48.340Z,7.84
2023-05-25T05:15:15.123Z,7.73
2023-05-25T05:17:41.774Z,7.91
2023-05-25T05:20:09.283Z,8.22
2023-05-25T05:22:37.456Z,8.33
2023-05-25T05:25:04.855Z,8.72
2023-05-25T05:27:31.667Z,9.97
2023-05-25T05:29:58.375Z,10.20
2023-05-25T05:32:25.116Z,10.59
2023-05-25T05:34:52.413Z,11.25
2023-05-25T05:37:19.052Z,11.75
2023-05-25T05:39:45.851Z,11.98
2023-05-25T05:42:12.586Z,12.52
2023-05-25T05:44:39.276Z,12.32
2023-05-25T05:47:06.155Z,12.00
2023-05-25T05:49:34.345Z,12.82
2023-05-25T05:52:01.478Z,13.31
2023-05-25T05:54:28.262Z,12.94
2023-05-25T05:56:54.976Z,13.00
2023-05-25T05:59:22.371Z,13.02
2023-05-25T06:01:49.483Z,12.68
2023-05-25T06:04:16.492Z,12.98
2023-05-25T06:06:45.280Z,12.73
2023-05-25T06:09:12.687Z,12.78
2023-05-25T06:11:40.123Z,12.19
2023-05-25T06:14:06.981Z,12.03
2023-05-25T06:16:34.100Z,12.47
2023-05-25T06:19:01.309Z,12.54
2023-05-25T06:21:28.031Z,12.50
2023-05-25T06:23:54.918Z,12.12
2023-05-25T06:26:22.063Z,12.59
2023-05-25T06:28:50.045Z,12.40
2023-05-25T06:31:16.750Z,12.00
2023-05-25T06:33:43.414Z,12.20
2023-05-25T06:36:11.067Z,12.00
2023-05-25T06:38:37.745Z,12.07
2023-05-25T06:41:05.523Z,11.58
2023-05-25T06:43:32.352Z,11.67
2023-05-25T06:45:59.365Z,11.18
2023-05-25T06:48:26.476Z,11.77
2023-05-25T06:50:53.157Z,11.42
2023-05-25T06:53:19.777Z,11.42
2023-05-25T06:55:46.561Z,11.51
2023-05-25T06:58:13.384Z,11.89
2023-05-25T07:00:40.076Z,11.15
2023-05-25T07:03:06.766Z,10.89
2023-05-25T07:05:33.425Z,11.22
2023-05-25T07:08:00.156Z,11.33
2023-05-25T07:10:26.843Z,11.13
2023-05-25T07:12:53.522Z,11.29
2023-05-25T07:15:21.657Z,10.12
2023-05-25T07:17:48.462Z,9.20
2023-05-25T07:20:15.233Z,10.19
2023-05-25T07:22:43.554Z,10.28
2023-05-25T07:25:10.439Z,9.89
2023-05-25T07:27:37.381Z,9.65
2023-05-25T07:30:04.878Z,10.11
2023-05-25T07:32:31.560Z,10.21
2023-05-25T07:34:58.260Z,10.66
2023-05-25T07:37:24.897Z,9.82
2023-05-25T07:39:51.551Z,9.42
2023-05-25T07:42:21.719Z,9.35
2023-05-25T07:44:49.028Z,9.26
2023-05-25T07:47:15.884Z,8.70
2023-05-25T07:49:42.550Z,9.23
2023-05-25T07:52:09.215Z,9.46
2023-05-25T07:54:40.000Z,9.76
2023-05-25T07:57:07.791Z,9.79
2023-05-25T07:59:34.511Z,9.78
2023-05-25T08:02:01.230Z,9.93
2023-05-25T08:04:28.012Z,10.40
2023-05-25T08:06:54.642Z,10.85
2023-05-25T08:09:21.548Z,10.92
2023-05-25T08:11:48.235Z,10.04
2023-05-25T08:14:14.967Z,10.88
2023-05-25T08:16:41.605Z,9.94
2023-05-25T08:19:08.277Z,10.04
2023-05-25T08:21:35.151Z,9.27
2023-05-25T08:24:04.245Z,9.70
2023-05-25T08:26:45.393Z,8.74
2023-05-25T08:29:18.654Z,8.72
2023-05-25T08:31:49.471Z,8.64
2023-05-25T08:34:19.225Z,8.86
2023-05-25T08:36:46.815Z,8.17
2023-05-25T08:39:13.446Z,8.29
2023-05-25T08:41:46.124Z,7.89
2023-05-25T08:44:14.638Z,7.96
2023-05-25T08:46:42.242Z,8.12
2023-05-25T08:49:11.180Z,8.14
2023-05-25T08:51:42.489Z,7.20
2023-05-25T08:54:12.251Z,6.54
2023-05-25T08:57:06.073Z,6.16
2023-05-25T08:59:52.013Z,5.95
2023-05-25T09:02:37.299Z,6.16
2023-05-25T09:05:04.763Z,6.81
2023-05-25T09:07:31.913Z,6.75
2023-05-25T09:10:01.034Z,6.00
2023-05-25T09:12:30.800Z,6.32
2023-05-25T09:15:00.349Z,6.75
2023-05-25T09:17:27.326Z,6.14
2023-05-25T09:19:54.872Z,5.73
2023-05-25T09:22:21.892Z,6.17
2023-05-25T09:24:48.952Z,6.02
2023-05-25T09:27:20.648Z,5.61
2023-05-25T09:29:49.215Z,5.59
2023-05-25T09:32:16.795Z,5.75
2023-05-25T09:34:44.983Z,5.26
2023-05-25T09:37:13.921Z,5.24
2023-05-25T09:39:42.613Z,5.88
2023-05-25T09:42:10.507Z,5.30
2023-05-25T09:44:37.314Z,5.03
2023-05-25T09:47:05.526Z,5.00
2023-05-25T09:49:32.715Z,5.10
2023-05-25T09:52:00.639Z,5.15
2023-05-25T09:54:27.534Z,4.80
2023-05-25T09:56:54.596Z,5.03
2023-05-25T09:59:23.152Z,5.08
2023-05-25T10:01:53.686Z,4.68
2023-05-25T10:04:20.969Z,5.12
2023-05-25T10:06:50.061Z,5.29
2023-05-25T10:09:19.332Z,5.37
2023-05-25T10:11:46.813Z,5.60
2023-05-25T10:14:20.262Z,5.65
2023-05-25T10:16:50.353Z,5.78
2023-05-25T10:19:23.782Z,5.46
2023-05-25T10:22:05.477Z,4.87
2023-05-25T10:24:37.175Z,4.33
2023-05-25T10:27:18.408Z,4.51
2023-05-25T10:29:52.758Z,5.10
2023-05-25T10:32:19.517Z,4.81
2023-05-25T10:34:46.823Z,4.75
2023-05-25T10:37:14.847Z,4.87
2023-05-25T10:39:43.925Z,4.99
2023-05-25T10:42:11.433Z,4.95
2023-05-25T10:44:38.815Z,4.85
2023-05-25T10:47:06.334Z,4.92
2023-05-25T10:49:35.369Z,4.64
2023-05-25T10:52:05.091Z,4.94
2023-05-25T10:54:36.243Z,5.14
2023-05-25T10:57:17.571Z,5.26
2023-05-25T10:59:49.360Z,5.03
2023-05-25T11:02:16.847Z,4.01
2023-05-25T11:04:48.146Z,3.81
2023-05-25T11:07:16.876Z,3.64
2023-05-25T11:09:56.534Z,3.85
2023-05-25T11:12:23.322Z,3.95
2023-05-25T11:15:08.925Z,4.07
2023-05-25T11:17:44.887Z,4.39
2023-05-25T11:20:25.201Z,4.79
2023-05-25T11:22:52.979Z,4.67
2023-05-25T11:25:42.063Z,4.98
2023-05-25T11:28:11.734Z,4.95
2023-05-25T11:30:41.304Z,5.16
2023-05-25T11:33:09.059Z,5.48
2023-05-25T11:35:37.316Z,5.77
2023-05-25T11:38:08.148Z,6.03
2023-05-25T11:40:37.549Z,5.76
2023-05-25T11:43:07.890Z,5.39
2023-05-25T11:45:34.921Z,5.08
2023-05-25T11:48:04.787Z,4.87
2023-05-25T11:50:32.122Z,4.99
2023-05-25T11:52:58.959Z,4.78
2023-05-25T11:55:25.688Z,4.68
2023-05-25T11:57:57.002Z,4.50
2023-05-25T12:00:28.394Z,4.21
2023-05-25T12:02:56.513Z,4.78
2023-05-25T12:05:24.268Z,4.95
2023-05-25T12:07:51.326Z,4.75
2023-05-25T12:10:18.239Z,4.98
2023-05-25T12:12:52.010Z,4.46
2023-05-25T12:15:22.900Z,4.58
2023-05-25T12:17:51.481Z,4.71
2023-05-25T12:20:19.205Z,4.24
2023-05-25T12:22:47.107Z,4.23
2023-05-25T12:25:19.631Z,4.31
2023-05-25T12:27:46.304Z,4.11
2023-05-25T12:30:13.029Z,4.17
2023-05-25T12:33:05.058Z,4.25
2023-05-25T12:35:46.127Z,4.27
2023-05-25T12:38:14.701Z,4.45
2023-05-25T12:40:42.395Z,4.58
2023-05-25T12:43:11.371Z,4.79
2023-05-25T12:45:42.954Z,5.39
2023-05-25T12:48:10.730Z,4.94
2023-05-25T12:50:37.877Z,5.45
2023-05-25T12:53:04.704Z,5.08
2023-05-25T12:55:33.219Z,5.25
2023-05-25T12:58:05.807Z,4.95
2023-05-25T13:00:33.633Z,4.57
2023-05-25T13:03:00.937Z,4.47
2023-05-25T13:05:30.099Z,5.10
2023-05-25T13:07:58.292Z,5.40
2023-05-25T13:10:26.077Z,5.36
2023-05-25T13:12:53.981Z,5.49
2023-05-25T13:15:21.926Z,5.33
2023-05-25T13:17:54.102Z,5.81
2023-05-25T13:20:26.060Z,5.41
2023-05-25T13:22:53.678Z,5.25
2023-05-25T13:25:22.171Z,5.51
2023-05-25T13:27:51.128Z,5.99
2023-05-25T13:30:20.677Z,5.67
2023-05-25T13:32:49.548Z,5.76
2023-05-25T13:35:38.268Z,5.12
2023-05-25T13:38:05.810Z,5.72
2023-05-25T13:40:32.552Z,5.64
2023-05-25T13:42:59.295Z,5.92
2023-05-25T13:45:25.869Z,5.55
2023-05-25T13:47:52.658Z,5.83
2023-05-25T13:50:20.144Z,5.47
2023-05-25T13:52:46.794Z,5.97
2023-05-25T13:55:13.597Z,5.95
2023-05-25T13:57:40.214Z,5.97
2023-05-25T14:00:08.504Z,5.98
2023-05-25T14:02:35.751Z,6.01
2023-05-25T14:05:02.476Z,5.98
2023-05-25T14:07:29.096Z,6.42
2023-05-25T14:09:57.068Z,6.01
2023-05-25T14:12:24.786Z,5.87
2023-05-25T14:14:51.567Z,5.58
2023-05-25T14:17:18.182Z,5.36
2023-05-25T14:19:44.810Z,5.62
2023-05-25T14:22:14.493Z,5.70
2023-05-25T14:24:42.058Z,6.02
2023-05-25T14:27:09.160Z,6.46
2023-05-25T14:29:35.921Z,6.20
2023-05-25T14:32:02.702Z,5.82
2023-05-25T14:34:29.759Z,5.88
2023-05-25T14:36:56.580Z,5.73
2023-05-25T14:39:23.250Z,5.95
2023-05-25T14:41:49.902Z,5.59
2023-05-25T14:44:16.730Z,5.62
2023-05-25T14:46:43.590Z,6.12
2023-05-25T14:49:10.359Z,5.90
2023-05-25T14:51:38.006Z,5.89
2023-05-25T14:54:06.356Z,5.73
2023-05-25T14:56:33.415Z,5.92
2023-05-25T14:59:00.145Z,5.22
2023-05-25T15:01:29.258Z,5.48
2023-05-25T15:03:56.361Z,5.69
2023-05-25T15:06:23.064Z,5.80
2023-05-25T15:08:49.637Z,5.86
2023-05-25T15:11:16.345Z,5.69
2023-05-25T15:13:42.970Z,5.47
2023-05-25T15:16:14.414Z,5.32
2023-05-25T15:18:41.193Z,5.70
2023-05-25T15:21:07.944Z,5.64
2023-05-25T15:23:34.641Z,5.64
2023-05-25T15:26:04.817Z,5.84
2023-05-25T15:28:31.718Z,6.43
2023-05-25T15:31:01.523Z,6.17
2023-05-25T15:33:39.966Z,5.86
2023-05-25T15:36:15.750Z,5.82
2023-05-25T15:38:43.284Z,6.26
2023-05-25T15:41:10.349Z,6.24
2023-05-25T15:43:37.567Z,6.00
2023-05-25T15:46:04.208Z,6.38
2023-05-25T15:48:30.830Z,5.69
2023-05-25T15:50:57.450Z,6.18
2023-05-25T15:53:24.089Z,6.00
2023-05-25T15:55:51.886Z,6.39
2023-05-25T15:58:18.576Z,6.30
2023-05-25T16:00:45.349Z,5.57
2023-05-25T16:03:12.040Z,5.60
2023-05-25T16:05:38.690Z,6.30
2023-05-25T16:08:05.453Z,6.36
2023-05-25T16:10:32.086Z,7.11
2023-05-25T16:12:59.301Z,6.10
2023-05-25T16:15:26.161Z,6.49
2023-05-25T16:17:52.808Z,6.70
2023-05-25T16:20:19.508Z,6.81
2023-05-25T16:22:46.257Z,7.36
2023-05-25T16:25:12.957Z,7.33
2023-05-25T16:27:39.660Z,7.39
2023-05-25T16:30:06.944Z,7.21
2023-05-25T16:32:33.628Z,6.71
2023-05-25T16:35:00.353Z,6.49
2023-05-25T16:37:27.558Z,7.20
2023-05-25T16:39:54.155Z,7.24
2023-05-25T16:42:20.846Z,7.36
2023-05-25T16:44:47.468Z,7.21
2023-05-25T16:47:14.078Z,6.92
2023-05-25T16:49:40.697Z,6.41
2023-05-25T16:52:07.370Z,7.14
2023-05-25T16:54:33.990Z,7.35
2023-05-25T16:57:01.731Z,7.35
2023-05-25T16:59:28.353Z,7.33
2023-05-25T17:01:55.082Z,7.00
2023-05-25T17:04:21.836Z,7.41
2023-05-25T17:06:48.461Z,7.33
2023-05-25T17:09:15.721Z,7.80
2023-05-25T17:11:42.346Z,7.14
2023-05-25T17:14:08.996Z,7.35
2023-05-25T17:16:35.699Z,7.90
2023-05-25T17:19:02.389Z,8.04
2023-05-25T17:21:29.074Z,7.85
2023-05-25T17:23:55.771Z,6.90
2023-05-25T17:26:22.662Z,7.69
2023-05-25T17:28:49.284Z,7.63
2023-05-25T17:31:15.951Z,7.30
2023-05-25T17:33:43.488Z,7.42
2023-05-25T17:36:10.148Z,7.88
2023-05-25T17:38:38.082Z,7.38
2023-05-25T17:41:04.747Z,7.85
2023-05-25T17:43:31.390Z,7.97
2023-05-25T17:45:59.219Z,8.34
2023-05-25T17:48:25.988Z,7.79
2023-05-25T17:50:52.662Z,7.92
2023-05-25T17:53:19.355Z,7.65
2023-05-25T17:55:46.206Z,8.04
2023-05-25T17:58:13.128Z,8.17
2023-05-25T18:00:39.768Z,7.49
2023-05-25T18:03:06.545Z,8.04
2023-05-25T18:05:33.283Z,7.68
2023-05-25T18:07:59.916Z,7.73
2023-05-25T18:10:26.619Z,8.16
2023-05-25T18:12:54.160Z,7.78
2023-05-25T18:15:21.739Z,7.79
2023-05-25T18:17:48.407Z,7.50
2023-05-25T18:20:15.201Z,7.49
2023-05-25T18:22:42.192Z,8.14
2023-05-25T18:25:09.253Z,8.18
2023-05-25T18:27:35.975Z,7.19
2023-05-25T18:30:02.863Z,7.93
2023-05-25T18:32:29.468Z,7.94
2023-05-25T18:34:57.279Z,7.00
2023-05-25T18:37:24.475Z,7.43
2023-05-25T18:39:51.118Z,7.11
2023-05-25T18:42:17.861Z,7.63
2023-05-25T18:44:44.533Z,8.17
2023-05-25T18:47:11.697Z,7.82
2023-05-25T18:49:38.621Z,7.65
2023-05-25T18:52:06.563Z,7.23
2023-05-25T18:54:33.233Z,7.19
2023-05-25T18:56:59.936Z,7.34
2023-05-25T18:59:26.561Z,7.57
2023-05-25T19:01:53.216Z,7.56
2023-05-25T19:04:20.887Z,7.48
2023-05-25T19:06:47.674Z,8.30
2023-05-25T19:09:14.274Z,7.70
2023-05-25T19:11:41.017Z,7.70
2023-05-25T19:14:07.647Z,7.61
2023-05-25T19:16:34.422Z,7.75
2023-05-25T19:19:01.115Z,7.53
2023-05-25T19:21:27.806Z,8.05
2023-05-25T19:23:54.394Z,8.10
2023-05-25T19:26:21.030Z,8.08
2023-05-25T19:28:47.648Z,7.89
2023-05-25T19:31:14.294Z,7.89
2023-05-25T19:33:41.050Z,7.76
2023-05-25T19:36:07.831Z,7.82
2023-05-25T19:38:41.411Z,8.10
2023-05-25T19:41:08.981Z,7.35
2023-05-25T19:43:36.112Z,7.65
2023-05-25T19:46:03.122Z,7.49
2023-05-25T19:48:29.891Z,7.84
2023-05-25T19:50:56.504Z,7.86
2023-05-25T19:53:23.207Z,7.69
2023-05-25T19:55:49.852Z,7.79
2023-05-25T19:58:16.466Z,7.86
2023-05-25T20:00:43.115Z,7.73
2023-05-25T20:03:10.075Z,8.01
2023-05-25T20:05:36.857Z,7.89
2023-05-25T20:08:03.759Z,7.76
2023-05-25T20:10:30.441Z,7.49
2023-05-25T20:12:57.046Z,7.60
2023-05-25T20:15:23.659Z,7.87
2023-05-25T20:17:50.348Z,7.38
2023-05-25T20:20:17.111Z,7.48
2023-05-25T20:22:43.830Z,7.46
2023-05-25T20:25:10.421Z,7.67
2023-05-25T20:27:37.008Z,7.46
2023-05-25T20:30:03.879Z,7.11
2023-05-25T20:32:30.630Z,7.05
2023-05-25T20:34:57.306Z,7.31
2023-05-25T20:37:23.902Z,7.24
2023-05-25T20:39:50.534Z,7.79
2023-05-25T20:42:17.223Z,7.78
2023-05-25T20:44:43.887Z,7.68
2023-05-25T20:47:10.530Z,7.93
2023-05-25T20:49:37.179Z,7.89
2023-05-25T20:52:03.905Z,8.47
2023-05-25T20:54:30.657Z,7.59
2023-05-25T20:56:57.452Z,7.57
2023-05-25T20:59:24.135Z,7.88
2023-05-25T21:01:50.914Z,7.81
2023-05-25T21:04:17.746Z,7.81
2023-05-25T21:06:45.062Z,8.07
2023-05-25T21:09:11.698Z,7.84
2023-05-25T21:11:38.370Z,7.78
2023-05-25T21:14:04.980Z,7.92
2023-05-25T21:16:31.883Z,7.44
2023-05-25T21:18:58.564Z,7.34
2023-05-25T21:21:25.615Z,7.39
2023-05-25T21:23:52.230Z,7.06
2023-05-25T21:26:18.986Z,7.77
2023-05-25T21:28:45.648Z,7.57
2023-05-25T21:31:12.295Z,7.37
2023-05-25T21:33:40.134Z,7.57
2023-05-25T21:36:07.793Z,7.77
2023-05-25T21:38:34.412Z,7.21
2023-05-25T21:41:01.104Z,7.68
2023-05-25T21:43:27.757Z,8.14
2023-05-25T21:45:54.377Z,6.93
2023-05-25T21:48:22.298Z,7.22
2023-05-25T21:50:51.771Z,7.41
2023-05-25T21:53:19.723Z,7.59
2023-05-25T21:55:47.438Z,8.18
2023-05-25T21:58:15.791Z,8.35
2023-05-25T22:00:42.438Z,7.85
2023-05-25T22:03:09.236Z,7.57
2023-05-25T22:05:35.984Z,7.85
2023-05-25T22:08:04.110Z,7.25
2023-05-25T22:10:30.990Z,7.70
2023-05-25T22:12:58.420Z,7.55
2023-05-25T22:15:25.471Z,8.01
2023-05-25T22:17:52.181Z,8.23
2023-05-25T22:20:19.200Z,7.67
2023-05-25T22:22:45.894Z,7.77
2023-05-25T22:25:13.406Z,8.38
2023-05-25T22:27:40.142Z,8.13
2023-05-25T22:30:07.360Z,8.30
2023-05-25T22:32:34.065Z,7.95
2023-05-25T22:35:02.097Z,7.85
2023-05-25T22:37:28.708Z,8.21
2023-05-25T22:39:55.452Z,8.40
2023-05-25T22:42:22.140Z,8.25
2023-05-25T22:44:51.055Z,8.21
2023-05-25T22:47:17.939Z,8.51
2023-05-25T22:49:44.714Z,7.86
2023-05-25T22:52:11.613Z,8.01
2023-05-25T22:54:38.306Z,8.46
2023-05-25T22:57:05.640Z,8.68
2023-05-25T22:59:32.425Z,8.43
2023-05-25T23:01:59.107Z,8.96
2023-05-25T23:04:25.748Z,8.15
2023-05-25T23:06:52.364Z,8.10
2023-05-25T23:09:19.044Z,8.48
2023-05-25T23:11:46.010Z,8.36
2023-05-25T23:14:12.658Z,8.42
2023-05-25T23:16:39.328Z,8.48
2023-05-25T23:19:06.225Z,8.28
2023-05-25T23:21:33.594Z,8.68
2023-05-25T23:24:00.381Z,8.05
2023-05-25T23:26:27.199Z,8.37
2023-05-25T23:28:53.958Z,8.07
2023-05-25T23:31:20.999Z,7.96
2023-05-25T23:33:47.662Z,7.62
2023-05-25T23:36:14.281Z,8.83
2023-05-25T23:38:41.162Z,8.38
2023-05-25T23:41:08.254Z,7.87
2023-05-25T23:43:35.031Z,8.12
2023-05-25T23:46:02.449Z,8.46
2023-05-25T23:48:29.226Z,8.28
2023-05-25T23:50:55.937Z,8.06
2023-05-25T23:53:22.628Z,8.77
2023-05-25T23:55:49.415Z,8.36
2023-05-25T23:58:16.139Z,8.05
